Time;durP1;ratioP1;P1;durP2;ratioP2;P2;SDS_P1;SDS_P2;PMS_P1;PMS_P2;Temp;Humidity;BMP_temperature;BMP_pressure;BME280_temperature;BME280_humidity;BME280_pressure;Samples;Min_cycle;Max_cycle;Signal;HPM_P1;HPM_P2
2023/10/28 00:00:45;;;;;;;3.03;0.80;;;;;;;-145.87;100.00;54973.53;2090799;28;20045;-59
2023/10/28 00:01:46;;;;;;;1.70;0.73;;;;;;;-145.87;100.00;54973.53;2091074;28;20378;-57
2023/10/28 00:02:47;;;;;;;0.82;0.55;;;;;;;-145.87;100.00;54973.53;2091694;28;20052;-59
2023/10/28 00:03:48;;;;;;;2.22;0.60;;;;;;;-145.87;100.00;54973.53;2091095;28;20053;-59
2023/10/28 00:04:49;;;;;;;3.60;0.50;;;;;;;-145.87;100.00;54973.53;2090794;28;20049;-58
2023/10/28 00:05:50;;;;;;;1.30;0.30;;;;;;;-145.87;100.00;54973.53;2091339;28;20040;-59
2023/10/28 00:06:52;;;;;;;1.85;0.52;;;;;;;-145.87;100.00;54973.53;2091259;28;20037;-58
2023/10/28 00:07:53;;;;;;;2.17;0.40;;;;;;;-145.87;100.00;54973.53;2091084;28;20048;-57
2023/10/28 00:08:54;;;;;;;1.75;0.35;;;;;;;-145.87;100.00;54973.53;2091115;28;20056;-57
2023/10/28 00:09:55;;;;;;;1.00;0.40;;;;;;;-145.87;100.00;54973.53;2090724;28;20473;-58
2023/10/28 00:10:56;;;;;;;0.63;0.30;;;;;;;-145.87;100.00;54973.53;2090888;28;20051;-59
2023/10/28 00:11:57;;;;;;;1.08;0.60;;;;;;;-145.87;100.00;54973.53;2091611;28;20052;-58
2023/10/28 00:12:59;;;;;;;0.30;0.20;;;;;;;-145.87;100.00;54973.53;2091439;28;20080;-58
2023/10/28 00:14:00;;;;;;;0.55;0.25;;;;;;;-145.87;100.00;54973.53;2091041;28;20496;-58
2023/10/28 00:15:01;;;;;;;1.13;0.20;;;;;;;-145.87;100.00;54973.53;2091186;28;20047;-59
2023/10/28 00:16:03;;;;;;;1.00;0.43;;;;;;;-145.87;100.00;54973.53;2091247;28;20045;-59
2023/10/28 00:17:04;;;;;;;0.43;0.35;;;;;;;-145.87;100.00;54973.53;2090990;28;20048;-59
2023/10/28 00:18:06;;;;;;;0.57;0.47;;;;;;;-145.87;100.00;54973.53;2091260;28;20045;-57
2023/10/28 00:19:07;;;;;;;0.90;0.38;;;;;;;-145.87;100.00;54973.53;2091074;28;20505;-59
2023/10/28 00:20:13;;;;;;;0.98;0.40;;;;;;;-145.87;100.00;54973.53;2090905;28;20052;-58
2023/10/28 00:21:17;;;;;;;0.45;0.17;;;;;;;-145.87;100.00;54973.53;2091263;28;20057;-59
2023/10/28 00:22:19;;;;;;;1.92;0.40;;;;;;;-145.87;100.00;54973.53;2090939;28;20055;-57
2023/10/28 00:23:20;;;;;;;0.50;0.20;;;;;;;-145.87;100.00;54973.53;2090907;28;20056;-59
2023/10/28 00:24:22;;;;;;;2.72;0.60;;;;;;;-145.87;100.00;54973.53;2091640;28;20400;-59
2023/10/28 00:25:25;;;;;;;2.40;0.40;;;;;;;-145.87;100.00;54973.53;2091130;28;20048;-59
2023/10/28 00:26:27;;;;;;;1.50;0.43;;;;;;;-145.87;100.00;54973.53;2090944;28;20041;-59
2023/10/28 00:27:28;;;;;;;0.65;0.30;;;;;;;-145.87;100.00;54973.53;2090973;28;20053;-59
2023/10/28 00:28:32;;;;;;;1.13;0.50;;;;;;;-145.87;100.00;54973.53;2090601;28;20056;-58
2023/10/28 00:29:34;;;;;;;2.08;0.40;;;;;;;-145.87;100.00;54973.53;2090912;28;20116;-59
2023/10/28 00:30:39;;;;;;;0.65;0.35;;;;;;;-145.87;100.00;54973.53;2091227;28;20047;-58
2023/10/28 00:31:40;;;;;;;1.15;0.50;;;;;;;-145.87;100.00;54973.53;2090282;28;20045;-58
2023/10/28 00:32:41;;;;;;;8.75;0.88;;;;;;;-145.87;100.00;54973.53;2081845;28;20058;-59
2023/10/28 00:33:42;;;;;;;1.98;0.63;;;;;;;-145.87;100.00;54973.53;2090374;28;20401;-57
2023/10/28 00:34:43;;;;;;;1.00;0.45;;;;;;;-145.87;100.00;54973.53;2090615;28;20051;-58
2023/10/28 00:35:44;;;;;;;2.97;0.52;;;;;;;-145.87;100.00;54973.53;2090885;28;20408;-60
2023/10/28 00:36:46;;;;;;;1.55;0.43;;;;;;;-145.87;100.00;54973.53;2091079;28;20037;-59
2023/10/28 00:37:47;;;;;;;1.02;0.52;;;;;;;-145.87;100.00;54973.53;2090971;28;20040;-60
2023/10/28 00:38:49;;;;;;;1.20;0.40;;;;;;;-145.87;100.00;54973.53;2090825;28;20139;-57
2023/10/28 00:39:50;;;;;;;2.40;0.50;;;;;;;-145.87;100.00;54973.53;2090477;28;20445;-60
2023/10/28 00:40:51;;;;;;;2.58;0.85;;;;;;;-145.87;100.00;54973.53;2081463;28;20057;-58
2023/10/28 00:41:52;;;;;;;1.38;0.60;;;;;;;-145.87;100.00;54973.53;2082273;28;20057;-59
2023/10/28 00:42:53;;;;;;;3.05;0.50;;;;;;;-145.87;100.00;54973.53;2082230;28;20045;-58
2023/10/28 00:43:54;;;;;;;4.13;0.60;;;;;;;-145.87;100.00;54973.53;2081625;28;20057;-59
2023/10/28 00:44:56;;;;;;;0.55;0.30;;;;;;;-145.87;100.00;54973.53;2089932;28;20468;-61
2023/10/28 00:45:59;;;;;;;1.70;0.30;;;;;;;-145.87;100.00;54973.53;2090840;28;20065;-59
2023/10/28 00:47:02;;;;;;;2.47;0.50;;;;;;;-145.87;100.00;54973.53;2081872;28;20054;-59
2023/10/28 00:48:04;;;;;;;2.10;0.32;;;;;;;-145.87;100.00;54973.53;2081933;28;20053;-60
2023/10/28 00:49:06;;;;;;;2.25;0.70;;;;;;;-145.87;100.00;54973.53;2073860;28;20132;-59
2023/10/28 00:50:09;;;;;;;0.80;0.40;;;;;;;-145.87;100.00;54973.53;2081952;28;20057;-60
2023/10/28 00:51:10;;;;;;;2.90;0.40;;;;;;;-145.87;100.00;54973.53;2089695;28;20052;-58
2023/10/28 00:52:11;;;;;;;0.85;0.40;;;;;;;-145.87;100.00;54973.53;2090484;28;20052;-58
2023/10/28 00:53:13;;;;;;;0.70;0.30;;;;;;;-145.87;100.00;54973.53;2090339;28;20536;-58
2023/10/28 00:54:14;;;;;;;1.20;0.43;;;;;;;-145.87;100.00;54973.53;2090216;28;20060;-58
2023/10/28 00:55:15;;;;;;;0.50;0.30;;;;;;;-145.87;100.00;54973.53;2073827;28;20474;-60
2023/10/28 00:56:18;;;;;;;0.77;0.47;;;;;;;-145.87;100.00;54973.53;2073650;28;20524;-57
2023/10/28 00:57:19;;;;;;;2.03;0.50;;;;;;;-145.87;100.00;54973.53;2066056;28;20407;-57
2023/10/28 00:58:21;;;;;;;0.40;0.30;;;;;;;-145.87;100.00;54973.53;2066272;28;20042;-58
2023/10/28 00:59:22;;;;;;;0.57;0.32;;;;;;;-145.87;100.00;54973.53;2081570;28;20049;-57
2023/10/28 01:00:23;;;;;;;0.75;0.45;;;;;;;-145.87;100.00;54973.53;2090039;28;20456;-59
2023/10/28 01:01:24;;;;;;;0.65;0.30;;;;;;;-145.87;100.00;54973.53;2090722;28;20500;-59
2023/10/28 01:02:27;;;;;;;0.50;0.30;;;;;;;-145.87;100.00;54973.53;2090131;28;20052;-59
2023/10/28 01:03:30;;;;;;;0.13;0.13;;;;;;;-145.87;100.00;54973.53;2073722;28;20710;-60
2023/10/28 01:04:31;;;;;;;0.73;0.43;;;;;;;-145.87;100.00;54973.53;2082830;28;20060;-60
2023/10/28 01:05:34;;;;;;;1.50;0.63;;;;;;;-145.87;100.00;54973.53;2089827;28;20049;-59
2023/10/28 01:06:35;;;;;;;2.15;0.50;;;;;;;-145.87;100.00;54973.53;2082171;28;20045;-59
2023/10/28 01:07:36;;;;;;;0.80;0.40;;;;;;;-145.87;100.00;54973.53;2090529;28;20044;-58
2023/10/28 01:08:37;;;;;;;0.77;0.40;;;;;;;-145.87;100.00;54973.53;2090948;28;20053;-57
2023/10/28 01:09:47;;;;;;;0.63;0.43;;;;;;;-145.87;100.00;54973.53;2089766;28;20056;-59
2023/10/28 01:10:48;;;;;;;1.13;0.40;;;;;;;-145.87;100.00;54973.53;2092999;28;20524;-57
2023/10/28 01:11:51;;;;;;;0.35;0.20;;;;;;;-145.87;100.00;54973.53;2090320;28;20052;-58
2023/10/28 01:12:52;;;;;;;0.95;0.30;;;;;;;-145.87;100.00;54973.53;2090685;28;20053;-58
2023/10/28 01:13:53;;;;;;;0.90;0.25;;;;;;;-145.87;100.00;54973.53;2090048;28;20040;-59
2023/10/28 01:14:55;;;;;;;0.73;0.30;;;;;;;-145.87;100.00;54973.53;2089501;28;20056;-57
2023/10/28 01:15:59;;;;;;;1.67;0.50;;;;;;;-145.87;100.00;54973.53;2090745;28;20056;-58
2023/10/28 01:17:04;;;;;;;1.70;0.40;;;;;;;-145.87;100.00;54973.53;2089903;28;20440;-57
2023/10/28 01:18:05;;;;;;;2.33;0.60;;;;;;;-145.87;100.00;54973.53;2082178;28;20057;-59
2023/10/28 01:19:09;;;;;;;1.42;0.45;;;;;;;-145.87;100.00;54973.53;2089689;28;20516;-57
2023/10/28 01:20:10;;;;;;;0.65;0.40;;;;;;;-145.87;100.00;54973.53;2090120;28;20060;-58
2023/10/28 01:21:12;;;;;;;0.65;0.38;;;;;;;-145.87;100.00;54973.53;2098052;28;20040;-58
2023/10/28 01:22:13;;;;;;;0.50;0.30;;;;;;;-145.87;100.00;54973.53;2089918;28;20052;-57
2023/10/28 01:23:14;;;;;;;0.63;0.40;;;;;;;-145.87;100.00;54973.53;2090209;28;20346;-57
2023/10/28 01:24:15;;;;;;;1.75;0.40;;;;;;;-145.87;100.00;54973.53;2091067;28;20048;-57
2023/10/28 01:25:16;;;;;;;0.32;0.30;;;;;;;-145.87;100.00;54973.53;2091536;28;20060;-58
2023/10/28 01:26:17;;;;;;;1.00;0.40;;;;;;;-145.87;100.00;54973.53;2091705;28;20033;-57
2023/10/28 01:27:19;;;;;;;1.15;0.43;;;;;;;-145.87;100.00;54973.53;2091465;28;20045;-59
2023/10/28 01:28:20;;;;;;;2.83;0.60;;;;;;;-145.87;100.00;54973.53;2091096;28;20048;-59
2023/10/28 01:29:22;;;;;;;0.65;0.40;;;;;;;-145.87;100.00;54973.53;2090697;28;20045;-58
2023/10/28 01:30:23;;;;;;;1.50;0.30;;;;;;;-145.87;100.00;54973.53;2089719;28;20064;-59
2023/10/28 01:31:24;;;;;;;3.03;0.50;;;;;;;-145.87;100.00;54973.53;2089650;28;20061;-57
2023/10/28 01:32:25;;;;;;;1.15;0.55;;;;;;;-145.87;100.00;54973.53;2090114;28;20540;-60
2023/10/28 01:33:27;;;;;;;1.05;0.30;;;;;;;-145.87;100.00;54973.53;2089914;28;20068;-57
2023/10/28 01:34:28;;;;;;;1.15;0.40;;;;;;;-145.87;100.00;54973.53;2090427;28;20064;-58
2023/10/28 01:35:31;;;;;;;2.25;0.40;;;;;;;-145.87;100.00;54973.53;2090413;28;20041;-58
2023/10/28 01:36:32;;;;;;;2.33;0.50;;;;;;;-145.87;100.00;54973.53;2090127;28;20049;-58
2023/10/28 01:37:34;;;;;;;0.88;0.30;;;;;;;-145.87;100.00;54973.53;2081657;28;20455;-58
2023/10/28 01:38:36;;;;;;;2.17;0.52;;;;;;;-145.87;100.00;54973.53;2089846;28;20049;-59
2023/10/28 01:39:38;;;;;;;0.85;0.50;;;;;;;-145.87;100.00;54973.53;2090276;28;20049;-58
2023/10/28 01:40:39;;;;;;;3.20;0.75;;;;;;;-145.87;100.00;54973.53;2090198;28;20048;-58
2023/10/28 01:41:40;;;;;;;1.33;0.50;;;;;;;-145.87;100.00;54973.53;2090841;28;20048;-58
2023/10/28 01:42:41;;;;;;;0.77;0.40;;;;;;;-145.87;100.00;54973.53;2090256;28;20055;-58
2023/10/28 01:43:46;;;;;;;2.85;0.95;;;;;;;-145.87;100.00;54973.53;2090493;28;20045;-58
2023/10/28 01:44:47;;;;;;;2.03;0.40;;;;;;;-145.87;100.00;54973.53;2090031;28;20049;-58
2023/10/28 01:45:48;;;;;;;0.70;0.30;;;;;;;-145.87;100.00;54973.53;2090573;28;20053;-59
2023/10/28 01:46:49;;;;;;;0.88;0.28;;;;;;;-145.87;100.00;54973.53;2089940;28;20045;-59
2023/10/28 01:47:52;;;;;;;0.70;0.40;;;;;;;-145.87;100.00;54973.53;2090170;28;20053;-59
2023/10/28 01:48:53;;;;;;;1.48;0.40;;;;;;;-145.87;100.00;54973.53;2090375;28;20053;-59
2023/10/28 01:49:54;;;;;;;1.35;0.35;;;;;;;-145.87;100.00;54973.53;2089995;28;20456;-58
2023/10/28 01:50:55;;;;;;;0.82;0.43;;;;;;;-145.87;100.00;54973.53;2089807;28;20044;-58
2023/10/28 01:51:56;;;;;;;0.20;0.20;;;;;;;-145.87;100.00;54973.53;2089903;28;20107;-59
2023/10/28 01:52:57;;;;;;;1.38;0.60;;;;;;;-145.87;100.00;54973.53;2090242;28;20045;-58
2023/10/28 01:53:59;;;;;;;2.83;0.70;;;;;;;-145.87;100.00;54973.53;2090420;28;20396;-60
2023/10/28 01:55:00;;;;;;;1.00;0.30;;;;;;;-145.87;100.00;54973.53;2090200;28;20056;-58
2023/10/28 01:56:01;;;;;;;3.78;0.60;;;;;;;-145.87;100.00;54973.53;2089411;28;20044;-58
2023/10/28 01:57:06;;;;;;;1.30;0.55;;;;;;;-145.87;100.00;54973.53;2089712;28;20434;-58
2023/10/28 01:58:07;;;;;;;1.75;0.60;;;;;;;-145.87;100.00;54973.53;2089671;28;20052;-57
2023/10/28 01:59:08;;;;;;;0.65;0.40;;;;;;;-145.87;100.00;54973.53;2089604;28;20060;-58
2023/10/28 02:00:13;;;;;;;3.70;0.70;;;;;;;-145.87;100.00;54973.53;2081359;28;20057;-57
2023/10/28 02:01:14;;;;;;;2.33;0.47;;;;;;;-145.87;100.00;54973.53;2089571;28;20450;-61
2023/10/28 02:02:15;;;;;;;5.13;0.60;;;;;;;-145.87;100.00;54973.53;2090272;28;20049;-58
2023/10/28 02:03:16;;;;;;;1.80;0.55;;;;;;;-145.87;100.00;54973.53;2090253;28;20409;-59
2023/10/28 02:04:18;;;;;;;0.95;0.32;;;;;;;-145.87;100.00;54973.53;2089929;28;20060;-60
2023/10/28 02:05:19;;;;;;;2.63;0.40;;;;;;;-145.87;100.00;54973.53;2089645;28;20064;-59
2023/10/28 02:06:21;;;;;;;0.70;0.30;;;;;;;-145.87;100.00;54973.53;2090024;28;20061;-60
2023/10/28 02:07:22;;;;;;;2.80;0.47;;;;;;;-145.87;100.00;54973.53;2089636;28;20068;-61
2023/10/28 02:08:23;;;;;;;2.42;0.57;;;;;;;-145.87;100.00;54973.53;2090201;28;20045;-59
2023/10/28 02:09:25;;;;;;;3.13;1.02;;;;;;;-145.87;100.00;54973.53;2089915;28;20489;-59
2023/10/28 02:10:27;;;;;;;1.92;0.63;;;;;;;-145.87;100.00;54973.53;2090072;28;20056;-59
2023/10/28 02:11:28;;;;;;;2.13;0.60;;;;;;;-145.87;100.00;54973.53;2090193;28;20045;-60
2023/10/28 02:12:30;;;;;;;3.25;0.60;;;;;;;-145.87;100.00;54973.53;2089528;28;20053;-59
2023/10/28 02:13:31;;;;;;;1.75;0.30;;;;;;;-145.87;100.00;54973.53;2089803;28;20045;-60
2023/10/28 02:14:33;;;;;;;2.83;0.60;;;;;;;-145.87;100.00;54973.53;2089576;28;20048;-59
2023/10/28 02:15:34;;;;;;;1.65;0.50;;;;;;;-145.87;100.00;54973.53;2081344;28;20053;-59
2023/10/28 02:16:38;;;;;;;1.85;0.47;;;;;;;-145.87;100.00;54973.53;2089606;28;20049;-60
2023/10/28 02:17:39;;;;;;;2.25;0.57;;;;;;;-145.87;100.00;54973.53;2089617;28;20048;-59
2023/10/28 02:18:40;;;;;;;2.90;1.10;;;;;;;-145.87;100.00;54973.53;2089548;28;20052;-59
2023/10/28 02:19:41;;;;;;;4.32;0.80;;;;;;;-145.87;100.00;54973.53;2089718;28;20428;-59
2023/10/28 02:20:43;;;;;;;0.80;0.40;;;;;;;-145.87;100.00;54973.53;2089696;28;20094;-59
2023/10/28 02:21:44;;;;;;;4.00;0.73;;;;;;;-145.87;100.00;54973.53;2089472;28;20037;-58
2023/10/28 02:22:45;;;;;;;1.67;0.57;;;;;;;-145.87;100.00;54973.53;2089769;28;20064;-58
2023/10/28 02:23:46;;;;;;;4.07;0.73;;;;;;;-145.87;100.00;54973.53;2089548;28;20053;-58
2023/10/28 02:24:47;;;;;;;2.85;0.90;;;;;;;-145.87;100.00;54973.53;2089548;28;20045;-59
2023/10/28 02:25:48;;;;;;;1.75;0.60;;;;;;;-145.87;100.00;54973.53;2089706;28;20401;-59
2023/10/28 02:26:50;;;;;;;1.60;0.40;;;;;;;-145.87;100.00;54973.53;2081483;28;20060;-59
2023/10/28 02:27:51;;;;;;;2.05;0.60;;;;;;;-145.87;100.00;54973.53;2081654;28;20068;-59
2023/10/28 02:28:52;;;;;;;1.90;0.82;;;;;;;-145.87;100.00;54973.53;2089148;28;20516;-58
2023/10/28 02:29:53;;;;;;;0.77;0.50;;;;;;;-145.87;100.00;54973.53;2089765;28;20037;-57
2023/10/28 02:30:54;;;;;;;3.90;0.88;;;;;;;-145.87;100.00;54973.53;2090159;28;20045;-59
2023/10/28 02:31:55;;;;;;;2.55;0.60;;;;;;;-145.87;100.00;54973.53;2090263;28;20036;-58
2023/10/28 02:32:57;;;;;;;0.32;0.28;;;;;;;-145.87;100.00;54973.53;2090168;28;20060;-58
2023/10/28 02:33:58;;;;;;;2.58;0.60;;;;;;;-145.87;100.00;54973.53;2089255;28;20053;-58
2023/10/28 02:34:59;;;;;;;1.85;0.85;;;;;;;-145.87;100.00;54973.53;2088849;28;20053;-58
2023/10/28 02:36:05;;;;;;;2.20;0.57;;;;;;;-145.87;100.00;54973.53;2089437;28;20040;-58
2023/10/28 02:37:06;;;;;;;1.98;0.52;;;;;;;-145.87;100.00;54973.53;2082147;28;20053;-58
2023/10/28 02:38:07;;;;;;;2.78;0.50;;;;;;;-145.87;100.00;54973.53;2089148;28;20052;-59
2023/10/28 02:39:11;;;;;;;2.88;0.60;;;;;;;-145.87;100.00;54973.53;2089966;28;20424;-58
2023/10/28 02:40:12;;;;;;;3.08;0.63;;;;;;;-145.87;100.00;54973.53;2090349;28;20064;-57
2023/10/28 02:41:15;;;;;;;2.92;0.45;;;;;;;-145.87;100.00;54973.53;2090082;28;20489;-58
2023/10/28 02:42:16;;;;;;;2.88;0.70;;;;;;;-145.87;100.00;54973.53;2089917;28;20053;-58
2023/10/28 02:43:17;;;;;;;1.38;0.60;;;;;;;-145.87;100.00;54973.53;2090260;28;20060;-57
2023/10/28 02:44:18;;;;;;;3.17;0.98;;;;;;;-145.87;100.00;54973.53;2090024;28;20045;-59
2023/10/28 02:45:19;;;;;;;1.83;0.52;;;;;;;-145.87;100.00;54973.53;2089722;28;20433;-58
2023/10/28 02:46:23;;;;;;;0.68;0.40;;;;;;;-145.87;100.00;54973.53;2090039;28;20051;-59
2023/10/28 02:47:25;;;;;;;2.00;0.52;;;;;;;-145.87;100.00;54973.53;2090047;28;20393;-58
2023/10/28 02:48:26;;;;;;;1.50;0.45;;;;;;;-145.87;100.00;54973.53;2089396;28;20132;-58
2023/10/28 02:49:27;;;;;;;0.85;0.40;;;;;;;-145.87;100.00;54973.53;2088950;28;20053;-59
2023/10/28 02:50:28;;;;;;;4.40;0.80;;;;;;;-145.87;100.00;54973.53;2089895;28;20053;-57
2023/10/28 02:51:29;;;;;;;1.77;0.50;;;;;;;-145.87;100.00;54973.53;2090147;28;20084;-58
2023/10/28 02:52:31;;;;;;;2.72;0.60;;;;;;;-145.87;100.00;54973.53;2089956;28;20037;-57
2023/10/28 02:53:32;;;;;;;4.07;0.75;;;;;;;-145.87;100.00;54973.53;2088936;28;20055;-58
2023/10/28 02:54:34;;;;;;;3.88;0.50;;;;;;;-145.87;100.00;54973.53;2089272;28;20045;-59
2023/10/28 02:55:36;;;;;;;0.17;0.17;;;;;;;-145.87;100.00;54973.53;2088860;28;20056;-58
2023/10/28 02:56:38;;;;;;;2.15;0.50;;;;;;;-145.87;100.00;54973.53;2080997;28;20054;-58
2023/10/28 02:57:39;;;;;;;0.70;0.45;;;;;;;-145.87;100.00;54973.53;2080927;28;20048;-58
2023/10/28 02:58:40;;;;;;;0.88;0.43;;;;;;;-145.87;100.00;54973.53;2089250;28;20044;-60
2023/10/28 02:59:41;;;;;;;2.28;0.77;;;;;;;-145.87;100.00;54973.53;2089854;28;20478;-58
2023/10/28 03:00:43;;;;;;;3.47;0.65;;;;;;;-145.87;100.00;54973.53;2088741;28;20122;-57
2023/10/28 03:01:44;;;;;;;1.27;0.70;;;;;;;-145.87;100.00;54973.53;2089131;28;20052;-58
2023/10/28 03:02:45;;;;;;;3.67;0.50;;;;;;;-145.87;100.00;54973.53;2089872;28;20060;-57
2023/10/28 03:03:46;;;;;;;2.50;0.43;;;;;;;-145.87;100.00;54973.53;2089984;28;20059;-58
2023/10/28 03:04:47;;;;;;;2.28;0.40;;;;;;;-145.87;100.00;54973.53;2089694;28;20539;-57
2023/10/28 03:05:49;;;;;;;5.97;0.68;;;;;;;-145.87;100.00;54973.53;2089080;28;20044;-57
2023/10/28 03:06:51;;;;;;;1.70;0.70;;;;;;;-145.87;100.00;54973.53;2089899;28;20394;-60
2023/10/28 03:07:52;;;;;;;3.03;0.45;;;;;;;-145.87;100.00;54973.53;2090975;28;20045;-58
2023/10/28 03:08:54;;;;;;;0.75;0.35;;;;;;;-145.87;100.00;54973.53;2082655;28;20053;-58
2023/10/28 03:09:55;;;;;;;1.80;0.43;;;;;;;-145.87;100.00;54973.53;2091059;28;20041;-58
2023/10/28 03:10:56;;;;;;;0.82;0.40;;;;;;;-145.87;100.00;54973.53;2091641;28;20056;-59
2023/10/28 03:11:57;;;;;;;2.17;0.60;;;;;;;-145.87;100.00;54973.53;2091985;28;20057;-58
2023/10/28 03:12:58;;;;;;;2.83;0.57;;;;;;;-145.87;100.00;54973.53;2091172;28;20056;-58
2023/10/28 03:13:59;;;;;;;3.72;0.52;;;;;;;-145.87;100.00;54973.53;2090528;28;20060;-59
2023/10/28 03:15:00;;;;;;;7.32;1.30;;;;;;;-145.87;100.00;54973.53;2091810;28;20374;-58
2023/10/28 03:16:03;;;;;;;4.60;1.05;;;;;;;-145.87;100.00;54973.53;2091439;28;20057;-57
2023/10/28 03:17:06;;;;;;;2.92;0.80;;;;;;;-145.87;100.00;54973.53;2090933;28;20045;-59
2023/10/28 03:18:07;;;;;;;3.00;0.60;;;;;;;-145.87;100.00;54973.53;2090650;28;20075;-58
2023/10/28 03:19:11;;;;;;;1.30;0.80;;;;;;;-145.87;100.00;54973.53;2091469;28;20059;-57
2023/10/28 03:20:18;;;;;;;0.77;0.50;;;;;;;-145.87;100.00;54973.53;2091549;28;20041;-58
2023/10/28 03:21:20;;;;;;;0.73;0.50;;;;;;;-145.87;100.00;54973.53;2090988;28;20068;-58
2023/10/28 03:22:21;;;;;;;1.08;0.47;;;;;;;-145.87;100.00;54973.53;2090903;28;20075;-60
2023/10/28 03:23:22;;;;;;;2.05;0.32;;;;;;;-145.87;100.00;54973.53;2091291;28;20396;-59
2023/10/28 03:24:23;;;;;;;2.67;0.80;;;;;;;-145.87;100.00;54973.53;2091479;28;20057;-58
2023/10/28 03:25:26;;;;;;;2.13;0.70;;;;;;;-145.87;100.00;54973.53;2091628;28;20060;-58
2023/10/28 03:26:27;;;;;;;2.95;0.50;;;;;;;-145.87;100.00;54973.53;2091480;28;20037;-58
2023/10/28 03:27:29;;;;;;;3.38;0.60;;;;;;;-145.87;100.00;54973.53;2091058;28;20119;-59
2023/10/28 03:28:30;;;;;;;1.52;0.65;;;;;;;-145.87;100.00;54973.53;2090981;28;20436;-58
2023/10/28 03:29:31;;;;;;;1.85;0.65;;;;;;;-145.87;100.00;54973.53;2090871;28;20048;-60
2023/10/28 03:30:32;;;;;;;2.42;0.80;;;;;;;-145.87;100.00;54973.53;2091439;28;20049;-58
2023/10/28 03:31:33;;;;;;;1.55;0.50;;;;;;;-145.87;100.00;54973.53;2091651;28;20056;-59
2023/10/28 03:32:34;;;;;;;1.38;0.45;;;;;;;-145.87;100.00;54973.53;2091446;28;20037;-59
2023/10/28 03:33:37;;;;;;;4.15;0.63;;;;;;;-145.87;100.00;54973.53;2091730;28;20068;-58
2023/10/28 03:34:38;;;;;;;2.53;0.65;;;;;;;-145.87;100.00;54973.53;2091412;28;20505;-58
2023/10/28 03:35:39;;;;;;;2.53;0.70;;;;;;;-145.87;100.00;54973.53;2091353;28;20048;-59
2023/10/28 03:36:40;;;;;;;2.50;0.65;;;;;;;-145.87;100.00;54973.53;2091101;28;20043;-59
2023/10/28 03:37:43;;;;;;;1.52;0.70;;;;;;;-145.87;100.00;54973.53;2091047;28;20052;-58
2023/10/28 03:38:44;;;;;;;3.90;0.82;;;;;;;-145.87;100.00;54973.53;2091081;28;20071;-59
2023/10/28 03:39:45;;;;;;;1.80;0.60;;;;;;;-145.87;100.00;54973.53;2091098;28;20052;-59
2023/10/28 03:40:47;;;;;;;2.25;0.65;;;;;;;-145.87;100.00;54973.53;2091016;28;20056;-59
2023/10/28 03:41:48;;;;;;;2.65;0.90;;;;;;;-145.87;100.00;54973.53;2090941;28;20060;-58
2023/10/28 03:42:49;;;;;;;2.15;0.63;;;;;;;-145.87;100.00;54973.53;2091737;28;20053;-59
2023/10/28 03:43:50;;;;;;;2.60;0.70;;;;;;;-145.87;100.00;54973.53;2091305;28;20045;-58
2023/10/28 03:44:52;;;;;;;2.55;0.63;;;;;;;-145.87;100.00;54973.53;2091062;28;20048;-58
2023/10/28 03:45:53;;;;;;;3.53;0.70;;;;;;;-145.87;100.00;54973.53;2091144;28;20438;-58
2023/10/28 03:46:54;;;;;;;4.07;0.77;;;;;;;-145.87;100.00;54973.53;2091227;28;20044;-58
2023/10/28 03:47:55;;;;;;;2.25;0.60;;;;;;;-145.87;100.00;54973.53;2091445;28;20045;-58
2023/10/28 03:48:56;;;;;;;6.55;0.93;;;;;;;-145.87;100.00;54973.53;2091431;28;20064;-58
2023/10/28 03:49:58;;;;;;;1.95;0.65;;;;;;;-145.87;100.00;54973.53;2091318;28;20041;-58
2023/10/28 03:51:02;;;;;;;1.38;0.70;;;;;;;-145.87;100.00;54973.53;2091468;28;20049;-59
2023/10/28 03:52:04;;;;;;;1.73;0.70;;;;;;;-145.87;100.00;54973.53;2091259;28;20052;-58
2023/10/28 03:53:05;;;;;;;2.05;0.50;;;;;;;-145.87;100.00;54973.53;2090820;28;20061;-58
2023/10/28 03:54:06;;;;;;;2.10;0.80;;;;;;;-145.87;100.00;54973.53;2091389;28;20055;-57
2023/10/28 03:55:07;;;;;;;1.95;0.70;;;;;;;-145.87;100.00;54973.53;2091143;28;20477;-58
2023/10/28 03:56:09;;;;;;;3.83;1.00;;;;;;;-145.87;100.00;54973.53;2091334;28;20049;-58
2023/10/28 03:57:10;;;;;;;2.70;0.77;;;;;;;-145.87;100.00;54973.53;2091431;28;20408;-59
2023/10/28 03:58:12;;;;;;;2.67;0.77;;;;;;;-145.87;100.00;54973.53;2091193;28;20041;-58
2023/10/28 03:59:13;;;;;;;3.05;0.90;;;;;;;-145.87;100.00;54973.53;2091713;28;20064;-58
2023/10/28 04:00:15;;;;;;;2.00;0.70;;;;;;;-145.87;100.00;54973.53;2091025;28;20056;-58
2023/10/28 04:01:16;;;;;;;2.90;0.85;;;;;;;-145.87;100.00;54973.53;2091326;28;20053;-58
2023/10/28 04:02:20;;;;;;;1.65;0.68;;;;;;;-145.87;100.00;54973.53;2091154;28;20060;-58
2023/10/28 04:03:21;;;;;;;2.38;0.70;;;;;;;-145.87;100.00;54973.53;2091260;28;20041;-58
2023/10/28 04:04:23;;;;;;;4.18;0.70;;;;;;;-145.87;100.00;54973.53;2091117;28;20504;-58
2023/10/28 04:05:24;;;;;;;2.15;0.60;;;;;;;-145.87;100.00;54973.53;2090818;28;20473;-58
2023/10/28 04:06:25;;;;;;;1.35;0.60;;;;;;;-145.87;100.00;54973.53;2091231;28;20036;-58
2023/10/28 04:07:26;;;;;;;3.72;0.55;;;;;;;-145.87;100.00;54973.53;2091317;28;20063;-58
2023/10/28 04:08:28;;;;;;;1.90;0.60;;;;;;;-145.87;100.00;54973.53;2090852;28;20060;-58
2023/10/28 04:09:29;;;;;;;2.20;0.77;;;;;;;-145.87;100.00;54973.53;2091401;28;20057;-61
2023/10/28 04:10:30;;;;;;;1.42;0.60;;;;;;;-145.87;100.00;54973.53;2091581;28;20053;-60
2023/10/28 04:11:31;;;;;;;1.35;0.60;;;;;;;-145.87;100.00;54973.53;2091083;28;20063;-58
2023/10/28 04:12:32;;;;;;;3.10;0.60;;;;;;;-145.87;100.00;54973.53;2091264;28;20465;-58
2023/10/28 04:13:33;;;;;;;0.82;0.50;;;;;;;-145.87;100.00;54973.53;2091167;28;20389;-58
2023/10/28 04:14:34;;;;;;;0.95;0.45;;;;;;;-145.87;100.00;54973.53;2091246;28;20038;-56
2023/10/28 04:15:35;;;;;;;0.65;0.30;;;;;;;-145.87;100.00;54973.53;2091057;28;20056;-58
2023/10/28 04:16:37;;;;;;;1.52;0.50;;;;;;;-145.87;100.00;54973.53;2091123;28;20056;-59
2023/10/28 04:17:38;;;;;;;1.10;0.40;;;;;;;-145.87;100.00;54973.53;2091503;28;20048;-58
2023/10/28 04:18:39;;;;;;;2.95;0.60;;;;;;;-145.87;100.00;54973.53;2090502;28;20048;-58
2023/10/28 04:19:40;;;;;;;1.90;0.60;;;;;;;-145.87;100.00;54973.53;2090755;28;20053;-59
2023/10/28 04:20:41;;;;;;;1.48;0.50;;;;;;;-145.87;100.00;54973.53;2091051;28;20047;-58
2023/10/28 04:21:42;;;;;;;1.63;0.68;;;;;;;-145.87;100.00;54973.53;2091148;28;20037;-59
2023/10/28 04:22:43;;;;;;;1.13;0.60;;;;;;;-145.87;100.00;54973.53;2090415;28;20044;-59
2023/10/28 04:23:44;;;;;;;2.75;0.77;;;;;;;-145.87;100.00;54973.53;2090788;28;20049;-58
2023/10/28 04:24:46;;;;;;;2.45;0.70;;;;;;;-145.87;100.00;54973.53;2090762;28;20052;-59
2023/10/28 04:25:47;;;;;;;2.55;0.75;;;;;;;-145.87;100.00;54973.53;2090860;28;20044;-58
2023/10/28 04:26:48;;;;;;;2.60;0.60;;;;;;;-145.87;100.00;54973.53;2090939;28;20053;-59
2023/10/28 04:27:50;;;;;;;0.73;0.40;;;;;;;-145.87;100.00;54973.53;2091132;28;20497;-58
2023/10/28 04:28:51;;;;;;;3.63;0.80;;;;;;;-145.87;100.00;54973.53;2090922;28;20499;-58
2023/10/28 04:29:52;;;;;;;1.92;0.50;;;;;;;-145.87;100.00;54973.53;2090710;28;20044;-59
2023/10/28 04:30:55;;;;;;;2.88;0.90;;;;;;;-145.87;100.00;54973.53;2091328;28;20060;-58
2023/10/28 04:31:56;;;;;;;0.75;0.50;;;;;;;-145.87;100.00;54973.53;2090991;28;20044;-59
2023/10/28 04:32:57;;;;;;;2.20;0.60;;;;;;;-145.87;100.00;54973.53;2091171;28;20044;-58
2023/10/28 04:34:02;;;;;;;1.70;0.55;;;;;;;-145.87;100.00;54973.53;2090943;28;20049;-58
2023/10/28 04:35:05;;;;;;;2.35;0.70;;;;;;;-145.87;100.00;54973.53;2091126;28;20049;-58
2023/10/28 04:36:09;;;;;;;2.15;0.60;;;;;;;-145.87;100.00;54973.53;2090664;28;20052;-58
2023/10/28 04:37:11;;;;;;;1.50;0.50;;;;;;;-145.87;100.00;54973.53;2090801;28;20489;-59
2023/10/28 04:38:12;;;;;;;1.70;0.50;;;;;;;-145.87;100.00;54973.53;2091016;28;20400;-59
2023/10/28 04:39:13;;;;;;;2.85;0.68;;;;;;;-145.87;100.00;54973.53;2091029;28;20056;-59
2023/10/28 04:40:14;;;;;;;4.07;0.80;;;;;;;-145.87;100.00;54973.53;2090758;28;20040;-58